createdAt,value
2023-04-25T00:01:55.881Z,3.33
2023-04-25T00:04:24.610Z,3.83
2023-04-25T00:06:54.020Z,1.10
2023-04-25T00:09:21.740Z,1.33
2023-04-25T00:11:49.843Z,2.50
2023-04-25T00:14:18.466Z,4.32
2023-04-25T00:16:45.994Z,1.63
2023-04-25T00:19:15.214Z,1.33
2023-04-25T00:21:43.103Z,3.17
2023-04-25T00:24:10.544Z,1.95
2023-04-25T00:26:38.582Z,1.33
2023-04-25T00:29:06.149Z,1.40
2023-04-25T00:31:34.484Z,1.20
2023-04-25T00:34:02.295Z,1.27
2023-04-25T00:36:29.836Z,2.50
2023-04-25T00:38:57.588Z,1.67
2023-04-25T00:41:27.046Z,1.50
2023-04-25T00:43:55.652Z,2.53
2023-04-25T00:46:23.168Z,1.38
2023-04-25T00:48:50.898Z,1.40
2023-04-25T00:51:20.988Z,1.23
2023-04-25T00:53:49.860Z,1.63
2023-04-25T00:56:18.737Z,2.65
2023-04-25T00:58:46.468Z,1.33
2023-04-25T01:01:14.384Z,2.20
2023-04-25T01:03:45.197Z,2.67
2023-04-25T01:06:13.357Z,2.25
2023-04-25T01:08:41.004Z,2.28
2023-04-25T01:11:08.493Z,2.13
2023-04-25T01:13:36.801Z,5.30
2023-04-25T01:16:04.800Z,2.45
2023-04-25T01:18:32.295Z,2.38
2023-04-25T01:21:09.931Z,4.15
2023-04-25T01:23:37.818Z,2.88
2023-04-25T01:26:06.195Z,3.53
2023-04-25T01:28:34.897Z,3.90
2023-04-25T01:31:02.968Z,3.75
2023-04-25T01:33:31.951Z,4.65
2023-04-25T01:35:59.579Z,2.97
2023-04-25T01:38:27.744Z,2.25
2023-04-25T01:40:56.606Z,3.92
2023-04-25T01:43:24.368Z,2.22
2023-04-25T01:45:53.066Z,2.22
2023-04-25T01:48:20.974Z,1.73
2023-04-25T01:50:48.598Z,2.65
2023-04-25T01:53:16.449Z,2.92
2023-04-25T01:55:44.158Z,4.35
2023-04-25T01:58:14.568Z,2.35
2023-04-25T02:00:42.544Z,5.03
2023-04-25T02:03:10.285Z,2.58
2023-04-25T02:05:38.402Z,3.55
2023-04-25T02:08:09.953Z,2.20
2023-04-25T02:10:37.752Z,3.10
2023-04-25T02:13:07.359Z,3.53
2023-04-25T02:15:35.105Z,3.67
2023-04-25T02:18:05.618Z,2.53
2023-04-25T02:20:33.280Z,3.25
2023-04-25T02:23:00.880Z,2.58
2023-04-25T02:25:28.478Z,3.03
2023-04-25T02:27:56.519Z,2.72
2023-04-25T02:30:23.963Z,3.00
2023-04-25T02:32:51.509Z,4.82
2023-04-25T02:35:19.097Z,2.90
2023-04-25T02:37:46.565Z,5.90
2023-04-25T02:40:14.154Z,5.38
2023-04-25T02:42:41.733Z,2.95
2023-04-25T02:45:09.502Z,2.78
2023-04-25T02:47:37.037Z,3.53
2023-04-25T02:50:04.884Z,3.03
2023-04-25T02:52:32.392Z,3.33
2023-04-25T02:54:59.866Z,3.33
2023-04-25T02:57:27.384Z,3.42
2023-04-25T02:59:54.866Z,3.85
2023-04-25T03:02:22.377Z,5.75
2023-04-25T03:04:49.997Z,3.17
2023-04-25T03:07:17.794Z,3.33
2023-04-25T03:09:45.283Z,3.72
2023-04-25T03:12:15.875Z,3.60
2023-04-25T03:14:43.178Z,3.97
2023-04-25T03:17:10.600Z,4.38
2023-04-25T03:19:38.143Z,2.63
2023-04-25T03:22:08.209Z,5.57
2023-04-25T03:24:35.752Z,3.40
2023-04-25T03:27:03.539Z,4.70
2023-04-25T03:29:31.685Z,3.42
2023-04-25T03:31:59.178Z,4.43
2023-04-25T03:34:27.629Z,5.47
2023-04-25T03:36:55.112Z,3.85
2023-04-25T03:39:22.723Z,3.90
2023-04-25T03:41:50.246Z,3.17
2023-04-25T03:44:17.748Z,5.00
2023-04-25T03:46:45.270Z,5.18
2023-04-25T03:49:12.906Z,5.97
2023-04-25T03:51:42.795Z,4.05
2023-04-25T03:54:10.256Z,6.80
2023-04-25T03:56:37.765Z,6.72
2023-04-25T03:59:05.274Z,5.32
2023-04-25T04:01:32.861Z,6.95
2023-04-25T04:04:00.531Z,6.15
2023-04-25T04:06:28.289Z,4.88
2023-04-25T04:08:55.788Z,4.50
2023-04-25T04:11:23.486Z,4.72
2023-04-25T04:13:51.163Z,5.43
2023-04-25T04:16:19.065Z,4.30
2023-04-25T04:18:47.685Z,4.55
2023-04-25T04:21:18.043Z,4.00
2023-04-25T04:23:45.513Z,7.63
2023-04-25T04:26:14.667Z,5.75
2023-04-25T04:28:42.428Z,5.13
2023-04-25T04:31:11.128Z,4.68
2023-04-25T04:33:39.070Z,4.88
2023-04-25T04:36:09.220Z,6.40
2023-04-25T04:38:41.856Z,3.08
2023-04-25T04:41:09.869Z,4.68
2023-04-25T04:43:38.330Z,4.95
2023-04-25T04:46:05.933Z,6.38
2023-04-25T04:48:36.921Z,4.53
2023-04-25T04:51:04.485Z,4.57
2023-04-25T04:53:31.954Z,10.82
2023-04-25T04:56:00.043Z,5.88
2023-04-25T04:58:27.515Z,4.63
2023-04-25T05:00:55.680Z,6.95
2023-04-25T05:03:23.538Z,7.05
2023-04-25T05:05:51.071Z,8.10
2023-04-25T05:08:18.569Z,10.65
2023-04-25T05:10:46.167Z,6.10
2023-04-25T05:13:13.888Z,4.47
2023-04-25T05:15:41.657Z,6.15
2023-04-25T05:18:09.254Z,6.10
2023-04-25T05:20:36.976Z,5.57
2023-04-25T05:23:04.455Z,5.43
2023-04-25T05:25:32.013Z,3.70
2023-04-25T05:27:59.951Z,5.00
2023-04-25T05:30:27.773Z,4.47
2023-04-25T05:32:55.362Z,5.82
2023-04-25T05:35:22.943Z,3.28
2023-04-25T05:37:50.447Z,4.90
2023-04-25T05:40:17.953Z,7.32
2023-04-25T05:42:45.417Z,8.40
2023-04-25T05:45:12.893Z,5.18
2023-04-25T05:47:40.431Z,5.70
2023-04-25T05:50:08.376Z,3.97
2023-04-25T05:52:36.275Z,4.15
2023-04-25T05:55:04.534Z,5.00
2023-04-25T05:57:32.292Z,4.18
2023-04-25T05:59:59.722Z,3.53
2023-04-25T06:02:28.279Z,3.10
2023-04-25T06:04:56.097Z,4.70
2023-04-25T06:07:23.802Z,3.60
2023-04-25T06:09:51.353Z,4.90
2023-04-25T06:12:18.808Z,6.82
2023-04-25T06:14:47.118Z,6.03
2023-04-25T06:17:14.647Z,6.90
2023-04-25T06:19:43.044Z,5.85
2023-04-25T06:22:10.583Z,6.22
2023-04-25T06:24:38.109Z,4.53
2023-04-25T06:27:05.556Z,4.22
2023-04-25T06:29:33.443Z,7.80
2023-04-25T06:32:00.987Z,4.13
2023-04-25T06:34:28.476Z,3.95
2023-04-25T06:36:55.925Z,3.28
2023-04-25T06:39:24.960Z,4.43
2023-04-25T06:41:52.679Z,4.13
2023-04-25T06:44:20.153Z,4.05
2023-04-25T06:46:47.673Z,3.90
2023-04-25T06:49:15.150Z,4.13
2023-04-25T06:51:42.838Z,2.97
2023-04-25T06:54:11.164Z,2.85
2023-04-25T06:56:42.146Z,5.65
2023-04-25T06:59:09.697Z,4.22
2023-04-25T07:01:37.623Z,5.50
2023-04-25T07:04:05.366Z,6.25
2023-04-25T07:06:32.964Z,3.40
2023-04-25T07:09:00.455Z,2.58
2023-04-25T07:11:29.942Z,5.85
2023-04-25T07:13:57.633Z,3.33
2023-04-25T07:16:25.163Z,4.57
2023-04-25T07:18:55.908Z,4.05
2023-04-25T07:21:23.433Z,5.57
2023-04-25T07:23:51.105Z,4.28
2023-04-25T07:26:18.718Z,3.40
2023-04-25T07:28:49.751Z,5.38
2023-04-25T07:31:19.136Z,4.38
2023-04-25T07:33:49.457Z,6.97
2023-04-25T07:36:17.218Z,5.97
2023-04-25T07:38:44.791Z,4.78
2023-04-25T07:41:12.999Z,6.82
2023-04-25T07:43:43.175Z,4.72
2023-04-25T07:46:10.973Z,2.88
2023-04-25T07:48:38.436Z,7.30
2023-04-25T07:51:06.825Z,7.60
2023-04-25T07:53:36.449Z,3.95
2023-04-25T07:56:06.606Z,3.25
2023-04-25T07:58:34.203Z,3.85
2023-04-25T08:01:02.080Z,4.93
2023-04-25T08:03:29.764Z,5.45
2023-04-25T08:05:57.662Z,3.30
2023-04-25T08:08:25.368Z,6.18
2023-04-25T08:10:52.854Z,4.28
2023-04-25T08:13:20.291Z,4.07
2023-04-25T08:15:47.853Z,6.45
2023-04-25T08:18:17.020Z,5.90
2023-04-25T08:20:48.444Z,5.78
2023-04-25T08:23:16.028Z,4.18
2023-04-25T08:25:43.524Z,4.28
2023-04-25T08:28:11.709Z,5.43
2023-04-25T08:30:39.202Z,3.42
2023-04-25T08:33:06.861Z,6.65
2023-04-25T08:35:35.244Z,5.63
2023-04-25T08:38:03.194Z,5.90
2023-04-25T08:40:31.811Z,5.60
2023-04-25T08:43:00.072Z,5.85
2023-04-25T08:45:29.324Z,3.75
2023-04-25T08:47:58.579Z,6.10
2023-04-25T08:50:27.980Z,3.55
2023-04-25T08:52:56.024Z,5.57
2023-04-25T08:55:23.669Z,5.07
2023-04-25T08:57:52.010Z,7.10
2023-04-25T09:00:20.589Z,6.60
2023-04-25T09:02:49.271Z,5.40
2023-04-25T09:05:18.414Z,6.47
2023-04-25T09:07:48.562Z,5.47
2023-04-25T09:10:18.156Z,5.35
2023-04-25T09:12:45.693Z,4.65
2023-04-25T09:15:20.541Z,4.40
2023-04-25T09:17:57.001Z,4.55
2023-04-25T09:20:24.598Z,7.68
2023-04-25T09:23:03.529Z,7.78
2023-04-25T09:25:36.026Z,8.82
2023-04-25T09:28:05.738Z,6.25
2023-04-25T09:30:34.153Z,5.93
2023-04-25T09:33:09.367Z,8.90
2023-04-25T09:35:39.496Z,8.68
2023-04-25T09:38:11.298Z,6.82
2023-04-25T09:40:43.877Z,4.95
2023-04-25T09:43:23.035Z,6.30
2023-04-25T09:45:51.477Z,4.82
2023-04-25T09:48:20.197Z,4.93
2023-04-25T09:51:05.364Z,6.80
2023-04-25T09:53:33.784Z,9.30
2023-04-25T09:56:01.993Z,5.45
2023-04-25T09:58:34.270Z,7.05
2023-04-25T10:01:03.193Z,6.97
2023-04-25T10:03:35.368Z,13.80
2023-04-25T10:06:12.881Z,5.90
2023-04-25T10:08:40.968Z,6.43
2023-04-25T10:11:09.652Z,7.68
2023-04-25T10:13:37.744Z,8.35
2023-04-25T10:16:06.129Z,5.05
2023-04-25T10:18:34.373Z,6.10
2023-04-25T10:21:02.920Z,10.27
2023-04-25T10:23:31.786Z,8.45
2023-04-25T10:26:00.403Z,12.23
2023-04-25T10:28:28.025Z,10.35
2023-04-25T10:31:18.068Z,6.47
2023-04-25T10:33:45.615Z,8.65
2023-04-25T10:36:17.292Z,9.75
2023-04-25T10:38:45.495Z,13.40
2023-04-25T10:41:16.806Z,12.60
2023-04-25T10:43:45.249Z,17.17
2023-04-25T10:46:19.247Z,12.77
2023-04-25T10:48:54.548Z,11.88
2023-04-25T10:51:50.987Z,9.52
2023-04-25T10:54:21.815Z,5.57
2023-04-25T10:56:50.710Z,12.05
2023-04-25T10:59:19.228Z,6.05
2023-04-25T11:01:48.037Z,8.48
2023-04-25T11:04:25.896Z,9.18
2023-04-25T11:09:47.644Z,15.52
2023-04-25T11:12:15.531Z,7.72
2023-04-25T11:14:43.036Z,6.25
2023-04-25T11:17:12.244Z,8.60
2023-04-25T11:19:39.905Z,9.98
2023-04-25T11:22:08.402Z,7.55
2023-04-25T11:24:36.550Z,10.05
2023-04-25T11:27:10.175Z,21.50
2023-04-25T11:29:37.844Z,14.07
2023-04-25T11:32:05.730Z,12.55
2023-04-25T11:34:34.473Z,13.82
2023-04-25T11:37:03.713Z,19.90
2023-04-25T11:39:31.614Z,18.65
2023-04-25T11:42:01.223Z,13.05
2023-04-25T11:44:32.957Z,17.05
2023-04-25T11:47:03.034Z,15.43
2023-04-25T11:49:33.030Z,7.38
2023-04-25T11:52:02.603Z,10.90
2023-04-25T11:54:30.230Z,15.85
2023-04-25T11:56:58.292Z,9.13
2023-04-25T11:59:26.765Z,14.07
2023-04-25T12:01:54.514Z,5.75
2023-04-25T12:04:23.236Z,10.63
2023-04-25T12:06:55.398Z,13.50
2023-04-25T12:09:32.493Z,8.73
2023-04-25T12:12:00.529Z,9.85
2023-04-25T12:14:33.646Z,8.50
2023-04-25T12:17:02.383Z,10.88
2023-04-25T12:19:37.054Z,8.55
2023-04-25T12:22:05.276Z,6.90
2023-04-25T12:24:38.316Z,6.20
2023-04-25T12:27:07.814Z,10.45
2023-04-25T12:29:48.801Z,6.68
2023-04-25T12:32:17.582Z,12.27
2023-04-25T12:34:45.263Z,9.57
2023-04-25T12:37:13.423Z,8.27
2023-04-25T12:39:41.492Z,11.20
2023-04-25T12:42:14.894Z,12.57
2023-04-25T12:44:42.961Z,4.57
2023-04-25T12:47:10.990Z,5.03
2023-04-25T12:49:38.614Z,5.15
2023-04-25T12:52:06.179Z,6.15
2023-04-25T12:54:33.730Z,7.03
2023-04-25T12:57:02.989Z,5.32
2023-04-25T12:59:30.748Z,6.13
2023-04-25T13:02:01.102Z,5.50
2023-04-25T13:04:28.792Z,10.57
2023-04-25T13:06:57.036Z,10.90
2023-04-25T13:09:24.562Z,6.75
2023-04-25T13:11:53.589Z,4.10
2023-04-25T13:14:23.501Z,5.80
2023-04-25T13:16:51.040Z,3.83
2023-04-25T13:19:18.680Z,2.72
2023-04-25T13:21:46.447Z,2.80
2023-04-25T13:24:14.110Z,3.35
2023-04-25T13:26:41.665Z,5.38
2023-04-25T13:29:09.989Z,5.05
2023-04-25T13:31:37.536Z,5.05
2023-04-25T13:34:05.372Z,3.00
2023-04-25T13:36:33.895Z,10.68
2023-04-25T13:39:01.606Z,3.90
2023-04-25T13:41:29.873Z,6.25
2023-04-25T13:44:00.279Z,3.53
2023-04-25T13:46:44.569Z,4.53
2023-04-25T13:49:13.996Z,15.52
2023-04-25T13:51:42.723Z,7.75
2023-04-25T13:54:10.390Z,2.60
2023-04-25T13:56:38.051Z,7.20
2023-04-25T13:59:05.615Z,6.90
2023-04-25T14:01:35.784Z,5.20
2023-04-25T14:04:05.560Z,8.10
2023-04-25T14:06:33.612Z,2.92
2023-04-25T14:09:02.671Z,5.68
2023-04-25T14:11:30.377Z,5.18
2023-04-25T14:14:00.846Z,3.40
2023-04-25T14:16:28.456Z,4.65
2023-04-25T14:18:56.279Z,2.45
2023-04-25T14:21:23.859Z,3.42
2023-04-25T14:23:52.085Z,3.45
2023-04-25T14:26:20.000Z,3.03
2023-04-25T14:28:47.601Z,5.07
2023-04-25T14:31:17.575Z,11.88
2023-04-25T14:33:45.088Z,3.20
2023-04-25T14:36:12.703Z,4.82
2023-04-25T14:38:40.413Z,3.17
2023-04-25T14:41:08.085Z,4.32
2023-04-25T14:43:35.532Z,2.20
2023-04-25T14:46:04.118Z,2.47
2023-04-25T14:48:31.963Z,3.08
2023-04-25T14:50:59.739Z,2.88
2023-04-25T14:53:27.680Z,3.10
2023-04-25T14:55:55.437Z,3.08
2023-04-25T14:58:23.138Z,2.85
2023-04-25T15:00:50.630Z,4.75
2023-04-25T15:03:19.060Z,4.78
2023-04-25T15:05:46.697Z,4.85
2023-04-25T15:08:15.257Z,5.93
2023-04-25T15:10:42.838Z,3.15
2023-04-25T15:13:12.826Z,3.15
2023-04-25T15:15:40.309Z,4.40
2023-04-25T15:18:07.819Z,4.95
2023-04-25T15:20:36.584Z,9.55
2023-04-25T15:23:04.983Z,3.70
2023-04-25T15:25:32.550Z,2.30
2023-04-25T15:28:01.575Z,6.40
2023-04-25T15:30:29.190Z,4.93
2023-04-25T15:32:57.257Z,4.97
2023-04-25T15:35:24.887Z,6.03
2023-04-25T15:37:53.111Z,3.25
2023-04-25T15:40:20.909Z,4.90
2023-04-25T15:42:52.288Z,5.15
2023-04-25T15:45:26.590Z,4.35
2023-04-25T15:47:55.729Z,6.07
2023-04-25T15:50:23.656Z,2.78
2023-04-25T15:52:51.857Z,16.60
2023-04-25T15:55:21.872Z,3.92
2023-04-25T15:57:50.516Z,5.40
2023-04-25T16:00:18.665Z,3.38
2023-04-25T16:02:47.362Z,3.67
2023-04-25T16:05:16.027Z,7.60
2023-04-25T16:07:48.409Z,4.15
2023-04-25T16:10:20.581Z,5.63
2023-04-25T16:12:51.504Z,7.53
2023-04-25T16:15:19.149Z,4.05
2023-04-25T16:17:46.746Z,3.92
2023-04-25T16:20:15.374Z,3.67
2023-04-25T16:22:43.649Z,5.50
2023-04-25T16:25:12.465Z,3.83
2023-04-25T16:27:40.241Z,4.68
2023-04-25T16:30:09.078Z,7.70
2023-04-25T16:32:37.260Z,2.90
2023-04-25T16:35:04.806Z,4.07
2023-04-25T16:37:32.416Z,3.25
2023-04-25T16:40:03.033Z,3.78
2023-04-25T16:42:30.560Z,3.25
2023-04-25T16:44:58.208Z,5.20
2023-04-25T16:47:26.200Z,2.75
2023-04-25T16:49:54.231Z,3.25
2023-04-25T16:52:24.339Z,4.70
2023-04-25T16:54:52.017Z,4.28
2023-04-25T16:57:19.527Z,2.42
2023-04-25T16:59:47.196Z,4.72
2023-04-25T17:02:15.570Z,5.40
2023-04-25T17:04:43.192Z,2.75
2023-04-25T17:07:10.652Z,2.33
2023-04-25T17:09:38.143Z,2.88
2023-04-25T17:12:06.070Z,4.78
2023-04-25T17:14:36.165Z,4.20
2023-04-25T17:17:04.422Z,4.10
2023-04-25T17:19:33.530Z,3.58
2023-04-25T17:22:01.091Z,5.18
2023-04-25T17:24:28.566Z,3.15
2023-04-25T17:26:59.266Z,7.95
2023-04-25T17:29:28.273Z,4.60
2023-04-25T17:31:58.606Z,3.45
2023-04-25T17:34:26.304Z,5.90
2023-04-25T17:36:53.811Z,4.13
2023-04-25T17:39:22.189Z,4.15
2023-04-25T17:41:50.355Z,2.92
2023-04-25T17:44:18.200Z,5.75
2023-04-25T17:46:46.031Z,9.23
2023-04-25T17:49:13.936Z,3.13
2023-04-25T17:51:41.418Z,4.82
2023-04-25T17:54:09.014Z,3.28
2023-04-25T17:56:38.843Z,4.35
2023-04-25T17:59:06.809Z,3.28
2023-04-25T18:01:34.515Z,3.47
2023-04-25T18:04:04.731Z,3.92
2023-04-25T18:06:33.655Z,5.22
2023-04-25T18:09:02.679Z,3.30
2023-04-25T18:11:30.883Z,4.03
2023-04-25T18:13:58.617Z,4.20
2023-04-25T18:16:26.296Z,4.47
2023-04-25T18:19:05.820Z,3.50
2023-04-25T18:21:33.697Z,8.75
2023-04-25T18:24:01.838Z,3.00
2023-04-25T18:26:31.265Z,3.22
2023-04-25T18:29:01.569Z,5.28
2023-04-25T18:31:30.663Z,5.40
2023-04-25T18:33:59.106Z,3.60
2023-04-25T18:36:28.127Z,4.72
2023-04-25T18:39:19.459Z,3.53
2023-04-25T18:41:58.141Z,4.07
2023-04-25T18:44:28.685Z,4.43
2023-04-25T18:46:56.127Z,5.80
2023-04-25T18:49:23.923Z,4.45
2023-04-25T18:51:52.076Z,5.28
2023-04-25T18:54:19.502Z,3.60
2023-04-25T18:56:47.412Z,4.10
2023-04-25T18:59:16.320Z,4.20
2023-04-25T19:01:44.235Z,6.18
2023-04-25T19:04:12.251Z,5.45
2023-04-25T19:06:39.889Z,3.90
2023-04-25T19:09:08.677Z,4.82
2023-04-25T19:11:36.253Z,9.02
2023-04-25T19:14:03.803Z,7.55
2023-04-25T19:16:34.922Z,4.22
2023-04-25T19:19:02.551Z,5.05
2023-04-25T19:21:33.930Z,8.13
2023-04-25T19:24:02.645Z,5.80
2023-04-25T19:26:30.146Z,7.10
2023-04-25T19:29:08.903Z,5.28
2023-04-25T19:31:37.299Z,4.38
2023-04-25T19:34:05.745Z,4.63
2023-04-25T19:36:33.339Z,15.63
2023-04-25T19:39:04.983Z,3.58
2023-04-25T19:41:33.047Z,9.57
2023-04-25T19:44:05.526Z,6.93
2023-04-25T19:46:33.525Z,4.40
2023-04-25T19:49:01.926Z,14.85
2023-04-25T19:51:30.145Z,4.80
2023-04-25T19:53:57.852Z,5.85
2023-04-25T19:56:25.338Z,5.50
2023-04-25T19:58:52.939Z,5.70
2023-04-25T20:01:22.922Z,7.25
2023-04-25T20:03:53.570Z,5.72
2023-04-25T20:06:21.437Z,6.68
2023-04-25T20:08:49.750Z,5.40
2023-04-25T20:11:17.486Z,6.35
2023-04-25T20:13:48.280Z,9.25
2023-04-25T20:16:20.608Z,8.63
2023-04-25T20:18:49.090Z,6.90
2023-04-25T20:21:17.560Z,7.85
2023-04-25T20:23:45.748Z,7.15
2023-04-25T20:26:13.593Z,13.45
2023-04-25T20:28:42.488Z,7.60
2023-04-25T20:31:11.615Z,8.15
2023-04-25T20:33:39.691Z,9.52
2023-04-25T20:36:10.686Z,8.30
2023-04-25T20:38:38.171Z,9.98
2023-04-25T20:41:09.925Z,9.90
2023-04-25T20:43:38.808Z,9.70
2023-04-25T20:46:06.999Z,9.73
2023-04-25T20:48:34.940Z,14.48
2023-04-25T20:51:02.801Z,14.10
2023-04-25T20:53:30.380Z,9.88
2023-04-25T20:55:58.158Z,11.20
2023-04-25T20:58:26.680Z,9.10
2023-04-25T21:00:55.424Z,9.13
2023-04-25T21:03:25.725Z,13.05
2023-04-25T21:05:53.538Z,9.82
2023-04-25T21:08:21.420Z,10.57
2023-04-25T21:10:49.468Z,12.48
2023-04-25T21:13:17.149Z,10.68
2023-04-25T21:15:44.629Z,11.48
2023-04-25T21:18:12.257Z,15.20
2023-04-25T21:20:40.349Z,13.55
2023-04-25T21:23:07.826Z,13.40
2023-04-25T21:25:36.218Z,17.48
2023-04-25T21:28:03.925Z,13.70
2023-04-25T21:30:31.574Z,14.70
2023-04-25T21:32:59.115Z,16.15
2023-04-25T21:35:26.900Z,14.10
2023-04-25T21:37:54.393Z,13.10
2023-04-25T21:40:22.659Z,13.13
2023-04-25T21:42:54.005Z,13.60
2023-04-25T21:45:22.317Z,13.18
2023-04-25T21:47:50.147Z,15.43
2023-04-25T21:50:18.583Z,16.13
2023-04-25T21:52:46.664Z,13.95
2023-04-25T21:55:14.138Z,14.57
2023-04-25T21:57:42.138Z,13.15
2023-04-25T22:00:30.231Z,12.30
2023-04-25T22:03:00.829Z,15.07
2023-04-25T22:05:30.001Z,10.07
2023-04-25T22:07:59.605Z,13.05
2023-04-25T22:10:27.358Z,14.23
2023-04-25T22:12:54.921Z,10.73
2023-04-25T22:15:24.323Z,11.57
2023-04-25T22:17:53.123Z,14.80
2023-04-25T22:20:23.709Z,13.45
2023-04-25T22:22:51.484Z,13.57
2023-04-25T22:25:20.129Z,11.25
2023-04-25T22:27:48.699Z,11.75
2023-04-25T22:30:16.770Z,11.40
2023-04-25T22:32:44.384Z,11.07
2023-04-25T22:35:12.889Z,13.35
2023-04-25T22:37:42.016Z,11.27
2023-04-25T22:40:10.049Z,12.45
2023-04-25T22:42:38.944Z,9.75
2023-04-25T22:45:08.685Z,9.75
2023-04-25T22:47:42.452Z,10.40
2023-04-25T22:50:14.078Z,11.70
2023-04-25T22:52:43.099Z,10.25
2023-04-25T22:55:11.446Z,12.40
2023-04-25T22:57:42.086Z,14.00
2023-04-25T23:00:17.334Z,9.68
2023-04-25T23:02:46.727Z,12.00
2023-04-25T23:05:14.621Z,13.38
2023-04-25T23:07:43.141Z,14.52
2023-04-25T23:10:10.882Z,9.98
2023-04-25T23:12:38.661Z,12.10
2023-04-25T23:15:06.559Z,11.32
2023-04-25T23:17:34.413Z,11.02
2023-04-25T23:20:01.969Z,14.10
2023-04-25T23:22:29.961Z,9.98
2023-04-25T23:24:57.698Z,11.95
2023-04-25T23:27:25.270Z,11.48
2023-04-25T23:29:57.270Z,12.27
2023-04-25T23:32:26.715Z,11.88
2023-04-25T23:34:54.370Z,10.73
2023-04-25T23:37:21.956Z,11.73
2023-04-25T23:39:51.390Z,11.25
2023-04-25T23:42:19.140Z,8.52
2023-04-25T23:44:46.914Z,11.48
2023-04-25T23:47:18.039Z,10.45
2023-04-25T23:49:48.741Z,12.30
2023-04-25T23:52:16.614Z,13.75
2023-04-25T23:54:44.233Z,10.63
2023-04-25T23:57:12.864Z,10.60
2023-04-25T23:59:40.368Z,12.20
